Climatologie pour Saint-Brevin les Pins
Jour • Résumé pour janvier 30, 2017 Système :  Métrique    Anglais   Mixte
« - 1 jour
+ 1 jour »
Jour Semaine Mois Année Personnalisé
  Maximum : Minimum : Moyenne :
Température sous abri : 11.4 °C 9.6 °C 10.7 °C
Point de rosée : 11.2 °C 9.3 °C 10.5 °C
Humidité : 99 % 98 % 99 %
Vitesse du vent : 16.1 km/h 1.6 km/h 7.6 km/h
Rafale : 25.7 km/h - -
Direction :- - SW
Pression : 1014.8 hPa 1013.1 hPa -
Précipitations : 7.1 mm    
Historical Graphs
 
 
Tableau de données pour janvier 30, 2017
Heure Tempé Pt rosée Pression Vent Vitesse Rafale Humidité Taux pluie (/hr) Soleil
00:00 10.3 °C 10.0 °C 1013.8 hPa WSW 6.4 km/h 17.7 km/h 98 % 0.0 mm 0 W/m2
00:10 10.3 °C 10.0 °C 1013.8 hPa SSW 1.6 km/h 17.7 km/h 98 % 0.0 mm 0 W/m2
00:15 10.2 °C 9.9 °C 1013.8 hPa SW 1.6 km/h 17.7 km/h 98 % 0.0 mm 0 W/m2
00:20 10.1 °C 9.8 °C 1014.1 hPa WSW 4.8 km/h 16.1 km/h 98 % 0.0 mm 0 W/m2
00:25 10.0 °C 9.7 °C 1014.1 hPa WSW 9.7 km/h 17.7 km/h 98 % 0.0 mm 0 W/m2
00:30 9.9 °C 9.6 °C 1014.1 hPa WSW 8.0 km/h 17.7 km/h 98 % 0.0 mm 0 W/m2
00:35 9.8 °C 9.5 °C 1013.8 hPa WSW 12.9 km/h 16.1 km/h 98 % 0.0 mm 0 W/m2
00:40 9.8 °C 9.5 °C 1014.1 hPa West 14.5 km/h 16.1 km/h 98 % 0.0 mm 0 W/m2
00:45 9.8 °C 9.5 °C 1014.1 hPa WSW 6.4 km/h 14.5 km/h 98 % 0.0 mm 0 W/m2
00:50 9.8 °C 9.5 °C 1014.1 hPa WSW 8.0 km/h 19.3 km/h 98 % 0.0 mm 0 W/m2
00:55 9.8 °C 9.5 °C 1014.1 hPa WNW 6.4 km/h 19.3 km/h 98 % 0.3 mm 0 W/m2
01:00 9.7 °C 9.4 °C 1014.1 hPa SW 6.4 km/h 14.5 km/h 98 % 0.3 mm 0 W/m2
01:05 9.7 °C 9.4 °C 1014.1 hPa WSW 6.4 km/h 14.5 km/h 98 % 0.3 mm 0 W/m2
01:10 9.6 °C 9.3 °C 1014.1 hPa SW 11.3 km/h 16.1 km/h 98 % 0.3 mm 0 W/m2
01:15 9.7 °C 9.4 °C 1014.1 hPa WSW 11.3 km/h 19.3 km/h 98 % 0.3 mm 0 W/m2
01:20 9.8 °C 9.5 °C 1013.8 hPa SW 4.8 km/h 19.3 km/h 98 % 0.3 mm 0 W/m2
01:25 9.8 °C 9.5 °C 1013.8 hPa WSW 4.8 km/h 19.3 km/h 98 % 0.3 mm 0 W/m2
01:30 9.9 °C 9.6 °C 1013.8 hPa WSW 9.7 km/h 19.3 km/h 98 % 0.3 mm 0 W/m2
01:35 10.0 °C 9.7 °C 1013.8 hPa WSW 12.9 km/h 19.3 km/h 98 % 0.3 mm 0 W/m2
01:40 9.9 °C 9.6 °C 1013.4 hPa SW 3.2 km/h 19.3 km/h 98 % 0.3 mm 0 W/m2
01:45 9.8 °C 9.5 °C 1013.4 hPa WSW 4.8 km/h 12.9 km/h 98 % 0.3 mm 0 W/m2
01:50 9.7 °C 9.4 °C 1013.4 hPa WSW 14.5 km/h 14.5 km/h 98 % 0.3 mm 0 W/m2
01:55 9.7 °C 9.4 °C 1013.4 hPa WSW 3.2 km/h 14.5 km/h 98 % 0.0 mm 0 W/m2
02:00 9.7 °C 9.4 °C 1013.4 hPa WSW 3.2 km/h 14.5 km/h 98 % 0.0 mm 0 W/m2
02:05 9.7 °C 9.4 °C 1013.4 hPa West 12.9 km/h 16.1 km/h 98 % 0.0 mm 0 W/m2
02:10 9.7 °C 9.4 °C 1013.4 hPa SW 8.0 km/h 16.1 km/h 98 % 0.3 mm 0 W/m2
02:15 9.8 °C 9.5 °C 1013.8 hPa SW 9.7 km/h 19.3 km/h 98 % 0.3 mm 0 W/m2
02:20 9.9 °C 9.6 °C 1013.8 hPa SSW 8.0 km/h 19.3 km/h 98 % 0.3 mm 0 W/m2
02:25 9.9 °C 9.6 °C 1013.8 hPa SW 4.8 km/h 19.3 km/h 98 % 0.3 mm 0 W/m2
02:30 9.8 °C 9.5 °C 1013.8 hPa SW 6.4 km/h 19.3 km/h 98 % 0.3 mm 0 W/m2
02:35 9.8 °C 9.5 °C 1013.8 hPa SW 6.4 km/h 17.7 km/h 98 % 0.3 mm 0 W/m2
02:40 9.8 °C 9.5 °C 1013.8 hPa SW 9.7 km/h 20.9 km/h 98 % 0.3 mm 0 W/m2
02:50 9.7 °C 9.6 °C 1013.8 hPa WSW 11.3 km/h 20.9 km/h 99 % 0.3 mm 0 W/m2
02:55 9.8 °C 9.6 °C 1013.8 hPa WSW 14.5 km/h 19.3 km/h 99 % 0.3 mm 0 W/m2
03:00 9.8 °C 9.6 °C 1013.8 hPa West 3.2 km/h 19.3 km/h 99 % 0.3 mm 0 W/m2
03:05 9.8 °C 9.6 °C 1013.8 hPa SW 14.5 km/h 17.7 km/h 99 % 0.3 mm 0 W/m2
03:10 9.8 °C 9.6 °C 1013.8 hPa WSW 3.2 km/h 17.7 km/h 99 % 0.0 mm 0 W/m2
03:15 9.8 °C 9.7 °C 1013.8 hPa WSW 8.0 km/h 17.7 km/h 99 % 0.0 mm 0 W/m2
03:20 10.0 °C 9.9 °C 1013.8 hPa SW 8.0 km/h 17.7 km/h 99 % 0.0 mm 0 W/m2
03:25 9.9 °C 9.8 °C 1013.8 hPa West 11.3 km/h 17.7 km/h 99 % 0.0 mm 0 W/m2
03:30 9.8 °C 9.7 °C 1013.8 hPa SSW 3.2 km/h 17.7 km/h 99 % 0.0 mm 0 W/m2
03:35 9.8 °C 9.7 °C 1013.8 hPa SW 4.8 km/h 14.5 km/h 99 % 0.0 mm 0 W/m2
03:40 9.8 °C 9.7 °C 1013.8 hPa SW 8.0 km/h 12.9 km/h 99 % 0.0 mm 0 W/m2
03:45 9.9 °C 9.7 °C 1013.4 hPa South 1.6 km/h 14.5 km/h 99 % 0.0 mm 0 W/m2
03:50 9.9 °C 9.8 °C 1013.4 hPa WSW 6.4 km/h 17.7 km/h 99 % 0.0 mm 0 W/m2
03:55 9.9 °C 9.7 °C 1013.4 hPa SW 11.3 km/h 17.7 km/h 99 % 0.0 mm 0 W/m2
04:00 9.9 °C 9.7 °C 1013.4 hPa West 12.9 km/h 14.5 km/h 99 % 0.0 mm 0 W/m2
04:05 9.9 °C 9.7 °C 1013.8 hPa WSW 11.3 km/h 16.1 km/h 99 % 0.0 mm 0 W/m2
04:20 9.8 °C 9.6 °C 1013.8 hPa West 11.3 km/h 16.1 km/h 99 % 0.0 mm 0 W/m2
04:25 9.8 °C 9.6 °C 1013.4 hPa West 11.3 km/h 17.7 km/h 99 % 0.0 mm 0 W/m2
04:30 9.8 °C 9.7 °C 1013.8 hPa WSW 4.8 km/h 17.7 km/h 99 % 0.0 mm 0 W/m2
04:35 9.8 °C 9.7 °C 1013.8 hPa SW 8.0 km/h 17.7 km/h 99 % 0.0 mm 0 W/m2
04:40 9.8 °C 9.6 °C 1013.8 hPa SW 4.8 km/h 19.3 km/h 99 % 0.0 mm 0 W/m2
04:45 9.8 °C 9.6 °C 1013.8 hPa WNW 8.0 km/h 19.3 km/h 99 % 0.0 mm 0 W/m2
04:50 9.8 °C 9.6 °C 1013.4 hPa WSW 6.4 km/h 14.5 km/h 99 % 0.0 mm 0 W/m2
04:55 9.8 °C 9.7 °C 1013.4 hPa WSW 9.7 km/h 12.9 km/h 99 % 0.0 mm 0 W/m2
05:00 9.8 °C 9.7 °C 1013.4 hPa SSW 4.8 km/h 12.9 km/h 99 % 0.0 mm 0 W/m2
05:05 9.9 °C 9.7 °C 1013.4 hPa SW 9.7 km/h 16.1 km/h 99 % 0.0 mm 0 W/m2
05:10 9.9 °C 9.8 °C 1013.8 hPa West 4.8 km/h 17.7 km/h 99 % 0.0 mm 0 W/m2
05:15 9.9 °C 9.8 °C 1013.8 hPa SSW 3.2 km/h 17.7 km/h 99 % 0.0 mm 0 W/m2
05:20 9.9 °C 9.8 °C 1013.8 hPa WSW 8.0 km/h 17.7 km/h 99 % 0.0 mm 0 W/m2
05:25 9.9 °C 9.8 °C 1013.8 hPa West 4.8 km/h 16.1 km/h 99 % 0.0 mm 0 W/m2
05:30 10.0 °C 9.9 °C 1013.8 hPa SW 6.4 km/h 17.7 km/h 99 % 0.0 mm 0 W/m2
05:35 10.0 °C 9.9 °C 1014.1 hPa WSW 12.9 km/h 17.7 km/h 99 % 0.0 mm 0 W/m2
05:40 10.1 °C 9.9 °C 1014.1 hPa SSW 8.0 km/h 20.9 km/h 99 % 0.0 mm 0 W/m2
05:45 10.0 °C 9.9 °C 1014.1 hPa WSW 11.3 km/h 20.9 km/h 99 % 0.0 mm 0 W/m2
05:50 10.0 °C 9.9 °C 1013.8 hPa SW 9.7 km/h 16.1 km/h 99 % 0.0 mm 0 W/m2
05:55 10.0 °C 9.9 °C 1013.8 hPa SW 4.8 km/h 19.3 km/h 99 % 0.0 mm 0 W/m2
06:00 10.0 °C 9.9 °C 1013.8 hPa SW 9.7 km/h 19.3 km/h 99 % 0.0 mm 0 W/m2
06:05 10.0 °C 9.9 °C 1013.8 hPa WSW 11.3 km/h 19.3 km/h 99 % 0.0 mm 0 W/m2
06:10 10.1 °C 9.9 °C 1013.8 hPa WSW 11.3 km/h 19.3 km/h 99 % 0.0 mm 0 W/m2
06:15 10.1 °C 10.0 °C 1013.8 hPa WSW 12.9 km/h 16.1 km/h 99 % 0.3 mm 0 W/m2
06:20 10.1 °C 10.0 °C 1013.8 hPa West 8.0 km/h 16.1 km/h 99 % 0.3 mm 0 W/m2
06:25 10.1 °C 10.0 °C 1013.8 hPa WSW 8.0 km/h 16.1 km/h 99 % 0.3 mm 0 W/m2
06:30 10.1 °C 10.0 °C 1014.1 hPa WSW 8.0 km/h 14.5 km/h 99 % 0.3 mm 0 W/m2
06:40 10.1 °C 10.0 °C 1013.8 hPa SSW 4.8 km/h 14.5 km/h 99 % 0.3 mm 0 W/m2
06:45 10.1 °C 10.0 °C 1013.8 hPa WSW 8.0 km/h 14.5 km/h 99 % 0.3 mm 0 W/m2
06:50 10.2 °C 10.1 °C 1013.8 hPa WSW 9.7 km/h 12.9 km/h 99 % 0.3 mm 0 W/m2
06:55 10.3 °C 10.2 °C 1013.8 hPa WSW 8.0 km/h 12.9 km/h 99 % 0.3 mm 0 W/m2
07:00 10.3 °C 10.1 °C 1013.8 hPa South 1.6 km/h 11.3 km/h 99 % 0.3 mm 0 W/m2
07:05 10.3 °C 10.1 °C 1013.8 hPa WSW 11.3 km/h 11.3 km/h 99 % 0.3 mm 0 W/m2
07:10 10.2 °C 10.0 °C 1013.4 hPa WSW 1.6 km/h 12.9 km/h 99 % 0.3 mm 0 W/m2
07:15 10.1 °C 10.0 °C 1013.4 hPa SW 8.0 km/h 12.9 km/h 99 % 0.0 mm 0 W/m2
07:20 10.1 °C 10.0 °C 1013.4 hPa WSW 3.2 km/h 11.3 km/h 99 % 0.0 mm 0 W/m2
07:25 10.2 °C 10.0 °C 1013.4 hPa SW 9.7 km/h 11.3 km/h 99 % 0.0 mm 0 W/m2
07:30 10.2 °C 10.1 °C 1013.4 hPa WSW 3.2 km/h 12.9 km/h 99 % 0.0 mm 0 W/m2
07:35 10.3 °C 10.1 °C 1013.4 hPa South 9.7 km/h 14.5 km/h 99 % 0.0 mm 0 W/m2
07:40 10.3 °C 10.1 °C 1013.4 hPa WSW 3.2 km/h 19.3 km/h 99 % 0.0 mm 0 W/m2
07:45 10.3 °C 10.2 °C 1013.4 hPa WSW 8.0 km/h 19.3 km/h 99 % 0.3 mm 0 W/m2
07:50 10.3 °C 10.1 °C 1013.4 hPa SSW 4.8 km/h 16.1 km/h 99 % 0.3 mm 0 W/m2
07:55 10.3 °C 10.2 °C 1013.4 hPa SW 8.0 km/h 16.1 km/h 99 % 0.3 mm 0 W/m2
08:00 10.4 °C 10.3 °C 1013.4 hPa SW 8.0 km/h 16.1 km/h 99 % 0.3 mm 0 W/m2
08:05 10.5 °C 10.3 °C 1013.4 hPa SW 4.8 km/h 16.1 km/h 99 % 0.3 mm 0 W/m2
08:10 10.5 °C 10.3 °C 1013.4 hPa SW 4.8 km/h 16.1 km/h 99 % 0.3 mm 0 W/m2
08:15 10.5 °C 10.3 °C 1013.4 hPa SW 8.0 km/h 12.9 km/h 99 % 0.3 mm 0 W/m2
08:20 10.5 °C 10.3 °C 1013.8 hPa WSW 8.0 km/h 12.9 km/h 99 % 0.3 mm 0 W/m2
08:25 10.6 °C 10.4 °C 1013.8 hPa South 12.9 km/h 12.9 km/h 99 % 0.5 mm 0 W/m2
08:30 10.7 °C 10.5 °C 1013.8 hPa SW 1.6 km/h 12.9 km/h 99 % 0.5 mm 0 W/m2
08:35 10.7 °C 10.6 °C 1013.8 hPa SW 4.8 km/h 12.9 km/h 99 % 0.8 mm 0 W/m2
08:40 10.8 °C 10.6 °C 1013.8 hPa SSW 3.2 km/h 12.9 km/h 99 % 1.0 mm 0 W/m2
08:45 10.8 °C 10.7 °C 1013.8 hPa SW 3.2 km/h 12.9 km/h 99 % 0.8 mm 0 W/m2
08:50 10.9 °C 10.7 °C 1013.8 hPa SSW 8.0 km/h 14.5 km/h 99 % 1.0 mm 0 W/m2
08:55 10.8 °C 10.7 °C 1013.8 hPa SSW 3.2 km/h 16.1 km/h 99 % 1.3 mm 0 W/m2
09:00 10.8 °C 10.6 °C 1013.8 hPa SW 9.7 km/h 16.1 km/h 99 % 1.5 mm 0 W/m2
09:05 10.7 °C 10.5 °C 1013.8 hPa WSW 11.3 km/h 16.1 km/h 99 % 2.0 mm 0 W/m2
09:10 10.5 °C 10.3 °C 1014.1 hPa SSW 11.3 km/h 24.1 km/h 99 % 2.3 mm 0 W/m2
09:15 10.5 °C 10.3 °C 1013.8 hPa SSW 8.0 km/h 24.1 km/h 99 % 2.3 mm 5 W/m2
09:20 10.4 °C 10.3 °C 1013.8 hPa WSW 11.3 km/h 17.7 km/h 99 % 2.3 mm 7 W/m2
09:25 10.3 °C 10.2 °C 1014.1 hPa SSW 4.8 km/h 17.7 km/h 99 % 2.0 mm 7 W/m2
09:30 10.3 °C 10.1 °C 1014.1 hPa SSW 8.0 km/h 17.7 km/h 99 % 2.0 mm 7 W/m2
09:35 10.2 °C 10.1 °C 1014.1 hPa SW 4.8 km/h 17.7 km/h 99 % 1.8 mm 7 W/m2
09:40 10.2 °C 10.0 °C 1014.1 hPa SW 8.0 km/h 17.7 km/h 99 % 1.5 mm 9 W/m2
09:45 10.2 °C 10.1 °C 1014.1 hPa WSW 9.7 km/h 20.9 km/h 99 % 1.5 mm 11 W/m2
09:50 10.2 °C 10.1 °C 1014.1 hPa SW 4.8 km/h 20.9 km/h 99 % 1.3 mm 16 W/m2
09:55 10.2 °C 10.1 °C 1014.1 hPa WSW 8.0 km/h 17.7 km/h 99 % 1.3 mm 12 W/m2
10:00 10.2 °C 10.0 °C 1014.1 hPa SSW 3.2 km/h 17.7 km/h 99 % 0.8 mm 19 W/m2
10:05 10.2 °C 10.0 °C 1014.1 hPa WSW 6.4 km/h 14.5 km/h 99 % 0.5 mm 14 W/m2
10:10 10.2 °C 10.1 °C 1014.1 hPa SW 8.0 km/h 14.5 km/h 99 % 0.5 mm 25 W/m2
10:15 10.3 °C 10.1 °C 1014.1 hPa SSW 3.2 km/h 14.5 km/h 99 % 0.3 mm 30 W/m2
10:20 10.3 °C 10.1 °C 1014.1 hPa SW 6.4 km/h 14.5 km/h 99 % 0.3 mm 37 W/m2
10:25 10.3 °C 10.2 °C 1014.1 hPa West 6.4 km/h 16.1 km/h 99 % 0.3 mm 42 W/m2
10:30 10.4 °C 10.2 °C 1014.1 hPa SW 4.8 km/h 16.1 km/h 99 % 0.3 mm 39 W/m2
10:35 10.4 °C 10.2 °C 1014.1 hPa SW 8.0 km/h 16.1 km/h 99 % 0.3 mm 42 W/m2
10:40 10.4 °C 10.2 °C 1014.1 hPa WSW 4.8 km/h 16.1 km/h 99 % 0.3 mm 46 W/m2
10:45 10.4 °C 10.2 °C 1014.4 hPa WSW 11.3 km/h 16.1 km/h 99 % 0.3 mm 46 W/m2
10:50 10.3 °C 10.2 °C 1014.4 hPa SW 9.7 km/h 17.7 km/h 99 % 0.3 mm 54 W/m2
10:55 10.4 °C 10.2 °C 1014.4 hPa West 9.7 km/h 17.7 km/h 99 % 0.3 mm 49 W/m2
11:00 10.4 °C 10.3 °C 1014.4 hPa SW 8.0 km/h 17.7 km/h 99 % 0.3 mm 63 W/m2
11:05 10.6 °C 10.4 °C 1014.4 hPa SSW 8.0 km/h 19.3 km/h 99 % 0.3 mm 69 W/m2
11:10 10.7 °C 10.5 °C 1014.4 hPa West 11.3 km/h 19.3 km/h 99 % 0.0 mm 76 W/m2
11:15 10.7 °C 10.6 °C 1014.4 hPa SW 9.7 km/h 17.7 km/h 99 % 0.0 mm 65 W/m2
11:20 10.8 °C 10.7 °C 1014.4 hPa SSW 8.0 km/h 17.7 km/h 99 % 0.0 mm 81 W/m2
11:25 11.0 °C 10.8 °C 1014.4 hPa WSW 4.8 km/h 17.7 km/h 99 % 0.0 mm 95 W/m2
11:30 11.1 °C 11.0 °C 1014.4 hPa SW 9.7 km/h 16.1 km/h 99 % 0.0 mm 102 W/m2
11:35 11.2 °C 11.0 °C 1014.4 hPa SW 6.4 km/h 19.3 km/h 99 % 0.0 mm 98 W/m2
11:40 11.1 °C 10.9 °C 1014.4 hPa SW 6.4 km/h 19.3 km/h 99 % 0.0 mm 83 W/m2
11:45 11.1 °C 10.9 °C 1014.4 hPa South 8.0 km/h 20.9 km/h 99 % 0.0 mm 58 W/m2
11:50 11.1 °C 10.9 °C 1014.4 hPa WSW 11.3 km/h 20.9 km/h 99 % 0.0 mm 88 W/m2
11:55 11.1 °C 11.0 °C 1014.8 hPa SSW 11.3 km/h 17.7 km/h 99 % 0.0 mm 65 W/m2
12:00 11.2 °C 11.0 °C 1014.8 hPa SSW 6.4 km/h 12.9 km/h 99 % 0.0 mm 83 W/m2
12:05 11.2 °C 11.0 °C 1014.8 hPa South 14.5 km/h 14.5 km/h 99 % 0.0 mm 70 W/m2
12:10 11.1 °C 10.9 °C 1014.8 hPa WSW 3.2 km/h 19.3 km/h 99 % 0.0 mm 83 W/m2
12:15 11.1 °C 11.0 °C 1014.8 hPa SSE 6.4 km/h 19.3 km/h 99 % 0.0 mm 105 W/m2
12:20 11.2 °C 11.1 °C 1014.8 hPa SW 3.2 km/h 20.9 km/h 99 % 0.0 mm 116 W/m2
12:25 11.3 °C 11.1 °C 1014.4 hPa South 16.1 km/h 20.9 km/h 99 % 0.0 mm 72 W/m2
12:30 11.2 °C 11.1 °C 1014.4 hPa WSW 3.2 km/h 25.7 km/h 99 % 0.0 mm 54 W/m2
12:35 11.2 °C 11.1 °C 1014.4 hPa SSW 11.3 km/h 25.7 km/h 99 % 0.0 mm 72 W/m2
12:40 11.2 °C 11.1 °C 1014.4 hPa SSW 9.7 km/h 19.3 km/h 99 % 0.0 mm 86 W/m2
12:45 11.3 °C 11.1 °C 1014.4 hPa SSW 6.4 km/h 19.3 km/h 99 % 0.0 mm 114 W/m2
12:50 11.3 °C 11.2 °C 1014.4 hPa South 12.9 km/h 19.3 km/h 99 % 0.0 mm 148 W/m2
12:55 11.3 °C 11.2 °C 1014.4 hPa SW 6.4 km/h 19.3 km/h 99 % 0.0 mm 134 W/m2
13:00 11.3 °C 11.2 °C 1014.1 hPa South 4.8 km/h 19.3 km/h 99 % 0.0 mm 116 W/m2
13:05 11.3 °C 11.2 °C 1014.1 hPa WSW 6.4 km/h 19.3 km/h 99 % 0.0 mm 107 W/m2
13:10 11.3 °C 11.2 °C 1014.1 hPa West 9.7 km/h 19.3 km/h 99 % 0.0 mm 100 W/m2
13:15 11.3 °C 11.2 °C 1014.1 hPa SW 3.2 km/h 17.7 km/h 99 % 0.0 mm 105 W/m2
13:20 11.3 °C 11.2 °C 1014.1 hPa SW 8.0 km/h 17.7 km/h 99 % 0.0 mm 113 W/m2
13:25 11.4 °C 11.2 °C 1014.1 hPa SW 6.4 km/h 17.7 km/h 99 % 0.0 mm 125 W/m2
13:30 11.3 °C 11.2 °C 1014.1 hPa SSE 3.2 km/h 17.7 km/h 99 % 0.0 mm 141 W/m2
13:35 11.3 °C 11.2 °C 1014.1 hPa West 12.9 km/h 20.9 km/h 99 % 0.0 mm 148 W/m2
13:40 11.2 °C 11.1 °C 1014.1 hPa WSW 8.0 km/h 22.5 km/h 99 % 0.0 mm 118 W/m2
13:45 11.3 °C 11.1 °C 1013.8 hPa South 11.3 km/h 22.5 km/h 99 % 0.0 mm 88 W/m2
13:50 11.3 °C 11.1 °C 1013.8 hPa SSW 8.0 km/h 22.5 km/h 99 % 0.0 mm 60 W/m2
13:55 11.3 °C 11.2 °C 1013.8 hPa SSW 4.8 km/h 20.9 km/h 99 % 0.0 mm 51 W/m2
14:00 11.3 °C 11.2 °C 1013.8 hPa SSW 8.0 km/h 20.9 km/h 99 % 0.0 mm 47 W/m2
14:05 11.3 °C 11.2 °C 1013.8 hPa West 6.4 km/h 19.3 km/h 99 % 0.0 mm 56 W/m2
14:10 11.3 °C 11.1 °C 1013.8 hPa WSW 11.3 km/h 20.9 km/h 99 % 0.0 mm 63 W/m2
14:15 11.3 °C 11.1 °C 1013.4 hPa SSW 11.3 km/h 22.5 km/h 99 % 0.0 mm 69 W/m2
14:20 11.3 °C 11.1 °C 1013.4 hPa SSW 14.5 km/h 22.5 km/h 99 % 0.0 mm 63 W/m2
14:25 11.3 °C 11.1 °C 1013.4 hPa SSE 8.0 km/h 17.7 km/h 99 % 0.0 mm 74 W/m2
14:30 11.3 °C 11.1 °C 1013.4 hPa SW 1.6 km/h 17.7 km/h 99 % 0.0 mm 65 W/m2
14:35 11.3 °C 11.2 °C 1013.4 hPa WSW 8.0 km/h 17.7 km/h 99 % 0.0 mm 91 W/m2
14:40 11.3 °C 11.2 °C 1013.4 hPa WSW 16.1 km/h 25.7 km/h 99 % 0.0 mm 58 W/m2
14:45 11.3 °C 11.1 °C 1013.4 hPa SW 14.5 km/h 25.7 km/h 99 % 0.0 mm 63 W/m2
14:50 11.3 °C 11.1 °C 1013.1 hPa South 11.3 km/h 19.3 km/h 99 % 0.0 mm 56 W/m2
14:55 11.3 °C 11.1 °C 1013.1 hPa WNW 3.2 km/h 19.3 km/h 99 % 0.0 mm 81 W/m2
15:00 11.3 °C 11.2 °C 1013.1 hPa SSW 9.7 km/h 20.9 km/h 99 % 0.0 mm 90 W/m2
15:05 11.4 °C 11.2 °C 1013.1 hPa SSW 9.7 km/h 22.5 km/h 99 % 0.0 mm 74 W/m2
15:10 11.3 °C 11.2 °C 1013.1 hPa SW 11.3 km/h 22.5 km/h 99 % 0.0 mm 54 W/m2
15:15 11.3 °C 11.1 °C 1013.1 hPa West 12.9 km/h 19.3 km/h 99 % 0.0 mm 53 W/m2
15:20 11.2 °C 11.1 °C 1013.1 hPa SW 4.8 km/h 20.9 km/h 99 % 0.0 mm 46 W/m2
15:25 11.2 °C 11.1 °C 1013.1 hPa SW 4.8 km/h 20.9 km/h 99 % 0.0 mm 54 W/m2
15:30 11.2 °C 11.1 °C 1013.1 hPa SSW 3.2 km/h 17.7 km/h 99 % 0.3 mm 65 W/m2
15:35 11.2 °C 11.1 °C 1013.1 hPa WSW 9.7 km/h 16.1 km/h 99 % 0.3 mm 62 W/m2
15:40 11.2 °C 11.0 °C 1013.1 hPa SW 8.0 km/h 17.7 km/h 99 % 0.3 mm 53 W/m2
15:45 11.2 °C 11.0 °C 1013.1 hPa WNW 6.4 km/h 19.3 km/h 99 % 0.3 mm 51 W/m2
15:50 11.2 °C 11.0 °C 1013.1 hPa South 6.4 km/h 19.3 km/h 99 % 0.3 mm 81 W/m2
15:55 11.2 °C 11.1 °C 1013.1 hPa SW 4.8 km/h 19.3 km/h 99 % 0.3 mm 51 W/m2
16:00 11.2 °C 11.0 °C 1013.1 hPa SW 11.3 km/h 17.7 km/h 99 % 0.3 mm 47 W/m2
16:05 11.1 °C 11.0 °C 1013.1 hPa SSW 11.3 km/h 20.9 km/h 99 % 0.3 mm 42 W/m2
16:10 11.1 °C 11.0 °C 1013.1 hPa SW 6.4 km/h 20.9 km/h 99 % 0.3 mm 62 W/m2
16:15 11.1 °C 11.0 °C 1013.1 hPa West 8.0 km/h 22.5 km/h 99 % 0.3 mm 63 W/m2
16:20 11.2 °C 11.0 °C 1013.1 hPa SW 12.9 km/h 22.5 km/h 99 % 0.3 mm 81 W/m2
16:25 11.2 °C 11.0 °C 1013.1 hPa SW 8.0 km/h 19.3 km/h 99 % 0.3 mm 76 W/m2
16:30 11.2 °C 11.0 °C 1013.1 hPa SW 3.2 km/h 19.3 km/h 99 % 0.0 mm 40 W/m2
16:35 11.2 °C 11.0 °C 1013.1 hPa WSW 11.3 km/h 19.3 km/h 99 % 0.0 mm 32 W/m2
16:40 11.2 °C 11.0 °C 1013.1 hPa SW 11.3 km/h 19.3 km/h 99 % 0.0 mm 21 W/m2
16:50 10.9 °C 10.8 °C 1013.1 hPa SW 14.5 km/h 20.9 km/h 99 % 0.0 mm 25 W/m2
16:55 11.0 °C 10.8 °C 1013.1 hPa WSW 6.4 km/h 17.7 km/h 99 % 0.0 mm 26 W/m2
17:00 11.1 °C 10.9 °C 1013.1 hPa SSW 11.3 km/h 19.3 km/h 99 % 0.0 mm 18 W/m2
17:15 11.1 °C 11.0 °C 1013.1 hPa SW 11.3 km/h 16.1 km/h 99 % 0.0 mm 11 W/m2
17:20 11.2 °C 11.0 °C 1013.1 hPa SW 11.3 km/h 16.1 km/h 99 % 0.0 mm 7 W/m2
17:25 11.2 °C 11.0 °C 1013.1 hPa South 12.9 km/h 16.1 km/h 99 % 0.0 mm 5 W/m2
17:30 11.2 °C 11.0 °C 1013.1 hPa SSW 6.4 km/h 16.1 km/h 99 % 0.0 mm 5 W/m2
17:40 11.1 °C 11.0 °C 1013.1 hPa SSW 6.4 km/h 16.1 km/h 99 % 0.0 mm 0 W/m2
17:45 11.2 °C 11.0 °C 1013.1 hPa SSW 3.2 km/h 16.1 km/h 99 % 0.0 mm 0 W/m2
17:50 11.2 °C 11.0 °C 1013.1 hPa SW 3.2 km/h 16.1 km/h 99 % 0.0 mm 0 W/m2
17:55 11.2 °C 11.1 °C 1013.4 hPa South 8.0 km/h 14.5 km/h 99 % 0.0 mm 0 W/m2
18:00 11.2 °C 11.1 °C 1013.4 hPa SSW 9.7 km/h 17.7 km/h 99 % 0.0 mm 0 W/m2
18:15 11.3 °C 11.1 °C 1013.4 hPa South 8.0 km/h 14.5 km/h 99 % 0.0 mm 0 W/m2
18:20 11.3 °C 11.1 °C 1013.4 hPa SW 6.4 km/h 19.3 km/h 99 % 0.0 mm 0 W/m2
18:25 11.3 °C 11.1 °C 1013.4 hPa South 3.2 km/h 20.9 km/h 99 % 0.0 mm 0 W/m2
18:30 11.3 °C 11.1 °C 1013.4 hPa SW 9.7 km/h 20.9 km/h 99 % 0.0 mm 0 W/m2
18:40 11.3 °C 11.1 °C 1013.4 hPa SSW 9.7 km/h 17.7 km/h 99 % 0.0 mm 0 W/m2
18:45 11.3 °C 11.2 °C 1013.4 hPa SSW 8.0 km/h 17.7 km/h 99 % 0.3 mm 0 W/m2
18:50 11.3 °C 11.2 °C 1013.4 hPa SSW 3.2 km/h 17.7 km/h 99 % 0.3 mm 0 W/m2
18:55 11.3 °C 11.2 °C 1013.4 hPa SSW 12.9 km/h 20.9 km/h 99 % 0.5 mm 0 W/m2
19:10 11.2 °C 11.1 °C 1013.4 hPa WSW 6.4 km/h 19.3 km/h 99 % 1.5 mm 0 W/m2
19:15 11.3 °C 11.1 °C 1013.4 hPa SSW 11.3 km/h 16.1 km/h 99 % 1.5 mm 0 W/m2
19:20 11.2 °C 11.1 °C 1013.4 hPa SSW 6.4 km/h 16.1 km/h 99 % 1.5 mm 0 W/m2
19:25 11.2 °C 11.1 °C 1013.4 hPa SSW 3.2 km/h 20.9 km/h 99 % 1.5 mm 0 W/m2
19:30 11.2 °C 11.1 °C 1013.4 hPa WSW 8.0 km/h 20.9 km/h 99 % 1.5 mm 0 W/m2
19:35 11.2 °C 11.0 °C 1013.4 hPa South 9.7 km/h 20.9 km/h 99 % 1.5 mm 0 W/m2
19:40 11.2 °C 11.0 °C 1013.4 hPa SW 8.0 km/h 20.9 km/h 99 % 1.5 mm 0 W/m2
19:45 11.2 °C 11.0 °C 1013.4 hPa SSW 8.0 km/h 20.9 km/h 99 % 1.5 mm 0 W/m2
19:50 11.2 °C 11.0 °C 1013.4 hPa SSW 4.8 km/h 20.9 km/h 99 % 1.5 mm 0 W/m2
19:55 11.2 °C 11.0 °C 1013.4 hPa WSW 1.6 km/h 22.5 km/h 99 % 1.3 mm 0 W/m2
20:00 11.2 °C 11.1 °C 1013.4 hPa South 6.4 km/h 22.5 km/h 99 % 0.8 mm 0 W/m2
20:05 11.2 °C 11.0 °C 1013.4 hPa WSW 6.4 km/h 16.1 km/h 99 % 0.5 mm 0 W/m2
20:10 11.2 °C 11.0 °C 1013.4 hPa WSW 3.2 km/h 16.1 km/h 99 % 0.3 mm 0 W/m2
20:15 11.1 °C 11.0 °C 1013.4 hPa SSW 8.0 km/h 17.7 km/h 99 % 0.3 mm 0 W/m2
20:20 11.1 °C 10.9 °C 1013.4 hPa SSW 6.4 km/h 17.7 km/h 99 % 0.0 mm 0 W/m2
20:25 11.0 °C 10.8 °C 1013.4 hPa SSW 8.0 km/h 20.9 km/h 99 % 0.3 mm 0 W/m2
20:30 11.0 °C 10.8 °C 1013.4 hPa WSW 3.2 km/h 20.9 km/h 99 % 0.3 mm 0 W/m2
20:35 10.9 °C 10.7 °C 1013.4 hPa SSW 9.7 km/h 14.5 km/h 99 % 0.5 mm 0 W/m2
20:40 10.8 °C 10.6 °C 1013.4 hPa SW 6.4 km/h 17.7 km/h 99 % 0.5 mm 0 W/m2
20:45 10.7 °C 10.5 °C 1013.4 hPa SW 9.7 km/h 17.7 km/h 99 % 0.5 mm 0 W/m2
20:50 10.6 °C 10.5 °C 1013.4 hPa SW 8.0 km/h 14.5 km/h 99 % 0.5 mm 0 W/m2
20:55 10.7 °C 10.5 °C 1013.4 hPa SW 3.2 km/h 19.3 km/h 99 % 0.5 mm 0 W/m2
21:00 10.6 °C 10.5 °C 1013.8 hPa SW 12.9 km/h 19.3 km/h 99 % 0.5 mm 0 W/m2
21:05 10.7 °C 10.5 °C 1013.8 hPa SW 1.6 km/h 16.1 km/h 99 % 0.5 mm 0 W/m2
21:10 10.7 °C 10.6 °C 1013.8 hPa SSW 6.4 km/h 14.5 km/h 99 % 0.5 mm 0 W/m2
21:15 10.8 °C 10.6 °C 1013.4 hPa SW 4.8 km/h 16.1 km/h 99 % 0.5 mm 0 W/m2
21:20 10.9 °C 10.7 °C 1013.4 hPa SSW 1.6 km/h 16.1 km/h 99 % 0.8 mm 0 W/m2
21:25 10.9 °C 10.8 °C 1013.8 hPa SW 1.6 km/h 12.9 km/h 99 % 0.5 mm 0 W/m2
21:30 11.0 °C 10.8 °C 1013.8 hPa SSW 4.8 km/h 12.9 km/h 99 % 0.5 mm 0 W/m2
21:35 11.1 °C 10.9 °C 1013.8 hPa WSW 4.8 km/h 12.9 km/h 99 % 0.5 mm 0 W/m2
21:40 11.0 °C 10.8 °C 1013.8 hPa West 6.4 km/h 16.1 km/h 99 % 0.5 mm 0 W/m2
21:45 11.0 °C 10.8 °C 1013.8 hPa WSW 8.0 km/h 16.1 km/h 99 % 0.5 mm 0 W/m2
21:50 11.0 °C 10.8 °C 1013.8 hPa West 4.8 km/h 17.7 km/h 99 % 0.3 mm 0 W/m2
21:55 11.0 °C 10.8 °C 1013.8 hPa WSW 8.0 km/h 17.7 km/h 99 % 0.3 mm 0 W/m2
22:00 11.0 °C 10.8 °C 1013.8 hPa SW 6.4 km/h 16.1 km/h 99 % 0.3 mm 0 W/m2
22:05 11.0 °C 10.8 °C 1013.8 hPa SW 12.9 km/h 14.5 km/h 99 % 0.3 mm 0 W/m2
22:10 11.0 °C 10.8 °C 1013.8 hPa SW 6.4 km/h 14.5 km/h 99 % 0.3 mm 0 W/m2
22:15 11.0 °C 10.8 °C 1013.8 hPa WSW 11.3 km/h 17.7 km/h 99 % 0.3 mm 0 W/m2
22:20 11.1 °C 10.9 °C 1013.8 hPa SSE 3.2 km/h 17.7 km/h 99 % 0.0 mm 0 W/m2
22:25 11.1 °C 11.0 °C 1013.8 hPa West 12.9 km/h 14.5 km/h 99 % 0.0 mm 0 W/m2
22:30 11.2 °C 11.0 °C 1013.8 hPa SSW 8.0 km/h 14.5 km/h 99 % 0.0 mm 0 W/m2
22:35 11.2 °C 11.0 °C 1013.8 hPa WSW 6.4 km/h 12.9 km/h 99 % 0.0 mm 0 W/m2
22:40 11.2 °C 11.0 °C 1013.8 hPa SW 9.7 km/h 11.3 km/h 99 % 0.0 mm 0 W/m2
22:45 11.2 °C 11.0 °C 1013.4 hPa WSW 9.7 km/h 17.7 km/h 99 % 0.0 mm 0 W/m2
22:50 11.1 °C 11.0 °C 1013.8 hPa SSW 8.0 km/h 17.7 km/h 99 % 0.0 mm 0 W/m2
22:55 11.2 °C 11.0 °C 1013.4 hPa South 4.8 km/h 14.5 km/h 99 % 0.0 mm 0 W/m2
23:00 11.2 °C 11.0 °C 1013.8 hPa SW 3.2 km/h 14.5 km/h 99 % 0.3 mm 0 W/m2
23:05 11.2 °C 11.1 °C 1013.4 hPa SW 6.4 km/h 14.5 km/h 99 % 0.3 mm 0 W/m2
23:10 11.2 °C 11.1 °C 1013.4 hPa SW 3.2 km/h 12.9 km/h 99 % 0.5 mm 0 W/m2
23:15 11.2 °C 11.1 °C 1013.4 hPa WSW 4.8 km/h 14.5 km/h 99 % 0.5 mm 0 W/m2
23:20 11.3 °C 11.1 °C 1013.4 hPa SW 8.0 km/h 14.5 km/h 99 % 0.5 mm 0 W/m2
23:25 11.3 °C 11.1 °C 1013.4 hPa WSW 9.7 km/h 16.1 km/h 99 % 0.5 mm 0 W/m2
23:30 11.3 °C 11.1 °C 1013.4 hPa SSW 3.2 km/h 16.1 km/h 99 % 0.8 mm 0 W/m2
23:35 11.3 °C 11.1 °C 1013.4 hPa SW 9.7 km/h 12.9 km/h 99 % 0.8 mm 0 W/m2
23:40 11.3 °C 11.1 °C 1013.4 hPa SW 6.4 km/h 12.9 km/h 99 % 0.8 mm 0 W/m2
23:45 11.3 °C 11.1 °C 1013.4 hPa SSW 9.7 km/h 14.5 km/h 99 % 0.8 mm 0 W/m2
23:50 11.3 °C 11.1 °C 1013.4 hPa South 9.7 km/h 14.5 km/h 99 % 0.8 mm 0 W/m2
23:55 11.3 °C 11.1 °C 1013.4 hPa SSE 8.0 km/h 17.7 km/h 99 % 1.0 mm 0 W/m2
Avec l'autorisation de Weather Underground - 1.75 mb